Ashotsk, Armenia

6:33 PM AMT on September 17, 2014 (GMT +0400)
SHIRAK | Change Station
CLOSE
Current Station
Airport
Location: SHIRAK,
Elevation: 5000 ft
Nearby Weather Stations

Elev 5000 ft 40.75 °N, 43.86 °E | Updated 33 minutes ago

Mostly Cloudy
Mostly Cloudy
70 °F
Feels Like 70 °F
N
0
Wind Variable Wind from North

Today
High -- | Low -- °F
--% Chance of Precip.
Yesterday
High -- | Low -- °F
Precip. -- in
6:47 AM 7:11 PM
Waning Crescent, 35% visible
Pressure 29.98 in
Visibility 6.2 miles
Clouds Scattered Clouds 4300 ft
Mostly Cloudy 10000 ft
Dew Point 37 °F
Humidity 31%
Rainfall 0.00 in
Snow Depth Not available.
UV 0 out of 12
Pollen Not available.
Air Quality Not available.
Flu Activity Not available.
METAR UDSG 171400Z 00000MPS 9999 SCT043CB BKN100 21/03 Q1015 R02/CLRD70 NOSIG

More Conditions Fewer Conditions

Pressure 29.98 in
Visibility 6.2 miles
Clouds Scattered Clouds 4300 ft
Mostly Cloudy 10000 ft
Dew Point 37 °F
Humidity 31%
Rainfall 0.00 in
Snow Depth Not available.
UV 0 out of 12
Pollen Not available.
Air Quality Not available.
Flu Activity Not available.
METAR UDSG 171400Z 00000MPS 9999 SCT043CB BKN100 21/03 Q1015 R02/CLRD70 NOSIG

More Conditions Fewer Conditions

10-Day Weather Forecast

Almanac

Astronomy

Sep. 17, 2014 Rise Set
Actual Time 6:47 AM AMT 7:11 PM AMT
Civil Twilight 6:19 AM AMT 7:38 PM AMT
Nautical Twilight 5:47 AM AMT 8:10 PM AMT
Astronomical Twilight 5:13 AM AMT 8:44 PM AMT
Moon 12:26 AM AMT 3:06 PM AMT
Length of Visible Light 13h 19m
Length of Day
12h 24m
Tomorrow will be 2m 41s shorter.
Waning Crescent, 35% of the Moon is Illuminated
Today
Waning Crescent
Sep 24
New
Oct 1
First Quarter
Oct 8
Full
Oct 15
Last Quarter

Today's Extremes

Country Highs Country Lows

Community

WunderPhotos

Upload Photos

1,754,057 photos uploaded!

WunderBlogs® & News

By Dr. Jeff Masters
Director of Meteorology, Weather Underground
By Kari Strenfel
Meteorologist, Weather Underground
By Christopher C. Burt
Weather Historian, Weather Underground
September 17, 2014
September 17, 2014
September 17, 2014

Nearby

Snow Depth

Not available.

Earthquake Activity

City Distance Mag. Time & Date
No recent earthquake activity has been reported nearby.
Minimum magnitude displayed is 2.5.

Coastal Water Temperatures

Place Temperature
No Stations Reporting

Nearby Weather Stations